createdAt,value
2018-07-03T00:01:09.587Z,1.80
2018-07-03T00:03:37.605Z,1.70
2018-07-03T00:06:05.722Z,1.80
2018-07-03T00:08:33.798Z,1.53
2018-07-03T00:11:01.898Z,1.70
2018-07-03T00:13:30.033Z,1.63
2018-07-03T00:15:58.095Z,2.23
2018-07-03T00:18:26.222Z,1.67
2018-07-03T00:20:54.245Z,1.40
2018-07-03T00:23:22.324Z,1.47
2018-07-03T00:25:50.422Z,1.60
2018-07-03T00:28:18.525Z,1.33
2018-07-03T00:30:46.607Z,1.50
2018-07-03T00:33:14.712Z,1.50
2018-07-03T00:35:42.754Z,1.60
2018-07-03T00:38:10.790Z,1.53
2018-07-03T00:40:38.840Z,1.63
2018-07-03T00:43:06.966Z,1.77
2018-07-03T00:45:36.194Z,1.40
2018-07-03T00:48:04.284Z,1.70
2018-07-03T00:50:32.335Z,1.57
2018-07-03T00:53:00.398Z,1.63
2018-07-03T00:55:28.438Z,1.60
2018-07-03T00:57:56.514Z,1.73
2018-07-03T01:00:32.512Z,1.70
2018-07-03T01:03:01.157Z,1.60
2018-07-03T01:05:29.262Z,1.40
2018-07-03T01:07:57.590Z,1.50
2018-07-03T01:10:25.886Z,1.70
2018-07-03T01:12:54.439Z,1.60
2018-07-03T01:15:22.522Z,1.70
2018-07-03T01:17:50.612Z,1.70
2018-07-03T01:20:19.195Z,2.00
2018-07-03T01:22:47.266Z,1.60
2018-07-03T01:25:15.304Z,1.70
2018-07-03T01:27:43.386Z,1.70
2018-07-03T01:30:11.685Z,1.60
2018-07-03T01:32:39.746Z,1.70
2018-07-03T01:35:07.828Z,1.70
2018-07-03T01:37:35.886Z,1.60
2018-07-03T01:40:04.003Z,1.90
2018-07-03T01:42:32.161Z,1.70
2018-07-03T01:45:00.331Z,1.47
2018-07-03T01:47:28.388Z,1.67
2018-07-03T01:49:56.460Z,1.67
2018-07-03T01:52:24.601Z,1.43
2018-07-03T01:54:52.675Z,1.70
2018-07-03T01:57:20.805Z,1.60
2018-07-03T01:59:48.870Z,1.70
2018-07-03T02:02:17.018Z,2.10
2018-07-03T02:04:45.049Z,1.77
2018-07-03T02:07:13.090Z,2.07
2018-07-03T02:09:41.144Z,1.80
2018-07-03T02:12:09.260Z,2.00
2018-07-03T02:14:37.320Z,1.67
2018-07-03T02:17:05.827Z,2.00
2018-07-03T02:19:33.916Z,1.90
2018-07-03T02:22:01.999Z,1.73
2018-07-03T02:24:30.144Z,1.90
2018-07-03T02:26:58.320Z,1.80
2018-07-03T02:29:26.390Z,1.80
2018-07-03T02:31:54.449Z,1.80
2018-07-03T02:34:22.480Z,1.60
2018-07-03T02:36:50.525Z,1.90
2018-07-03T02:39:18.666Z,1.90
2018-07-03T02:41:46.729Z,1.67
2018-07-03T02:44:14.772Z,1.80
2018-07-03T02:46:42.837Z,1.80
2018-07-03T02:49:10.875Z,1.63
2018-07-03T02:51:38.901Z,1.90
2018-07-03T02:54:07.011Z,1.70
2018-07-03T02:56:35.053Z,1.60
2018-07-03T02:59:03.143Z,1.70
2018-07-03T03:01:31.213Z,1.60
2018-07-03T03:03:59.287Z,1.67
2018-07-03T03:06:27.377Z,1.90
2018-07-03T03:08:55.609Z,1.90
2018-07-03T03:11:24.297Z,1.90
2018-07-03T03:13:53.925Z,1.70
2018-07-03T03:16:21.969Z,1.90
2018-07-03T03:18:50.567Z,2.47
2018-07-03T03:21:18.955Z,2.03
2018-07-03T03:23:48.139Z,2.00
2018-07-03T03:26:16.221Z,1.90
2018-07-03T03:28:44.600Z,2.00
2018-07-03T03:31:12.668Z,2.17
2018-07-03T03:33:40.747Z,2.00
2018-07-03T03:36:09.623Z,2.10
2018-07-03T03:38:38.137Z,2.00
2018-07-03T03:41:06.607Z,1.93
2018-07-03T03:43:34.667Z,2.10
2018-07-03T03:46:02.771Z,1.90
2018-07-03T03:48:30.924Z,2.00
2018-07-03T03:50:59.100Z,2.10
2018-07-03T03:53:27.163Z,2.10
2018-07-03T03:55:55.308Z,2.17
2018-07-03T03:58:25.334Z,2.10
2018-07-03T04:00:55.272Z,1.80
2018-07-03T04:03:23.339Z,2.87
2018-07-03T04:05:51.383Z,2.10
2018-07-03T04:08:19.529Z,2.20
2018-07-03T04:10:47.705Z,1.90
2018-07-03T04:13:15.848Z,2.20
2018-07-03T04:15:43.963Z,2.03
2018-07-03T04:18:12.026Z,2.57
2018-07-03T04:20:40.087Z,2.27
2018-07-03T04:23:08.113Z,2.40
2018-07-03T04:25:36.357Z,1.90
2018-07-03T04:28:04.446Z,3.33
2018-07-03T04:30:32.526Z,2.20
2018-07-03T04:33:00.598Z,2.60
2018-07-03T04:35:28.732Z,2.30
2018-07-03T04:37:56.840Z,2.53
2018-07-03T04:40:24.920Z,2.50
2018-07-03T04:42:53.079Z,2.30
2018-07-03T04:45:21.399Z,2.67
2018-07-03T04:47:50.129Z,2.77
2018-07-03T04:50:18.658Z,2.70
2018-07-03T04:52:46.736Z,2.67
2018-07-03T04:55:15.540Z,2.80
2018-07-03T04:57:43.621Z,2.43
2018-07-03T05:00:11.686Z,2.70
2018-07-03T05:02:39.912Z,2.73
2018-07-03T05:05:08.030Z,2.80
2018-07-03T05:07:36.220Z,2.73
2018-07-03T05:10:04.372Z,2.90
2018-07-03T05:12:32.439Z,2.47
2018-07-03T05:15:01.222Z,3.30
2018-07-03T05:17:29.364Z,2.80
2018-07-03T05:19:57.596Z,2.67
2018-07-03T05:22:25.694Z,3.10
2018-07-03T05:24:53.734Z,3.20
2018-07-03T05:27:21.790Z,3.10
2018-07-03T05:29:50.015Z,3.20
2018-07-03T05:32:18.094Z,2.70
2018-07-03T05:34:46.146Z,2.90
2018-07-03T05:37:14.274Z,2.97
2018-07-03T05:39:42.301Z,3.10
2018-07-03T05:42:10.403Z,3.23
2018-07-03T05:44:38.612Z,2.70
2018-07-03T05:47:06.691Z,3.00
2018-07-03T05:49:34.787Z,3.13
2018-07-03T05:52:02.954Z,2.90
2018-07-03T05:54:30.999Z,3.17
2018-07-03T05:56:59.154Z,3.27
2018-07-03T05:59:27.227Z,3.10
2018-07-03T06:01:55.270Z,3.73
2018-07-03T06:04:23.566Z,3.20
2018-07-03T06:06:51.489Z,3.30
2018-07-03T06:09:20.484Z,3.40
2018-07-03T06:11:48.443Z,2.70
2018-07-03T06:14:16.476Z,2.90
2018-07-03T06:16:44.546Z,3.10
2018-07-03T06:19:12.620Z,3.20
2018-07-03T06:21:40.711Z,3.27
2018-07-03T06:24:08.803Z,3.30
2018-07-03T06:26:36.979Z,3.27
2018-07-03T06:29:05.152Z,3.10
2018-07-03T06:31:33.196Z,3.00
2018-07-03T06:34:01.231Z,3.23
2018-07-03T06:36:29.327Z,3.00
2018-07-03T06:38:57.372Z,3.43
2018-07-03T06:41:28.038Z,3.27
2018-07-03T06:44:04.893Z,3.40
2018-07-03T06:46:33.039Z,2.80
2018-07-03T06:49:04.451Z,3.03
2018-07-03T06:51:33.397Z,2.97
2018-07-03T06:54:01.623Z,3.50
2018-07-03T06:56:29.726Z,3.57
2018-07-03T06:58:58.947Z,3.00
2018-07-03T07:01:27.151Z,2.70
2018-07-03T07:03:56.110Z,2.90
2018-07-03T07:06:24.171Z,2.87
2018-07-03T07:08:52.371Z,3.07
2018-07-03T07:11:23.407Z,2.93
2018-07-03T07:13:51.631Z,2.73
2018-07-03T07:16:19.773Z,2.90
2018-07-03T07:18:47.939Z,2.97
2018-07-03T07:21:15.965Z,3.00
2018-07-03T07:23:44.020Z,2.87
2018-07-03T07:26:12.125Z,3.00
2018-07-03T07:28:40.159Z,3.30
2018-07-03T07:31:08.667Z,2.90
2018-07-03T07:33:40.437Z,2.97
2018-07-03T07:36:08.886Z,2.70
2018-07-03T07:38:37.045Z,2.80
2018-07-03T07:41:05.157Z,2.83
2018-07-03T07:43:34.215Z,3.20
2018-07-03T07:46:02.295Z,2.80
2018-07-03T07:48:30.345Z,2.97
2018-07-03T07:50:58.429Z,2.90
2018-07-03T07:53:26.923Z,2.40
2018-07-03T07:55:55.423Z,2.70
2018-07-03T07:58:23.462Z,2.60
2018-07-03T08:00:51.547Z,2.80
2018-07-03T08:03:19.578Z,3.03
2018-07-03T08:05:48.363Z,2.50
2018-07-03T08:08:16.691Z,2.40
2018-07-03T08:10:44.927Z,2.70
2018-07-03T08:13:13.377Z,2.33
2018-07-03T08:15:41.455Z,2.40
2018-07-03T08:18:11.760Z,2.53
2018-07-03T08:20:39.808Z,2.30
2018-07-03T08:23:07.889Z,2.50
2018-07-03T08:25:35.919Z,2.20
2018-07-03T08:28:04.033Z,2.30
2018-07-03T08:30:32.155Z,1.90
2018-07-03T08:33:00.286Z,2.20
2018-07-03T08:35:28.617Z,2.13
2018-07-03T08:37:56.763Z,1.90
2018-07-03T08:40:24.862Z,2.30
2018-07-03T08:42:52.982Z,2.00
2018-07-03T08:45:21.076Z,2.20
2018-07-03T08:47:49.136Z,1.83
2018-07-03T08:50:17.360Z,2.10
2018-07-03T08:52:45.424Z,2.00
2018-07-03T08:55:13.582Z,2.33
2018-07-03T08:57:41.697Z,2.00
2018-07-03T09:00:09.835Z,1.90
2018-07-03T09:02:38.105Z,2.10
2018-07-03T09:05:06.236Z,2.23
2018-07-03T09:07:34.384Z,2.10
2018-07-03T09:10:02.448Z,2.00
2018-07-03T09:12:30.559Z,2.10
2018-07-03T09:14:58.584Z,2.13
2018-07-03T09:17:28.669Z,1.93
2018-07-03T09:19:57.099Z,2.23
2018-07-03T09:22:25.185Z,2.37
2018-07-03T09:24:53.263Z,2.00
2018-07-03T09:27:21.401Z,2.40
2018-07-03T09:29:49.660Z,2.30
2018-07-03T09:32:17.854Z,2.70
2018-07-03T09:34:46.322Z,2.87
2018-07-03T09:37:14.385Z,2.83
2018-07-03T09:39:42.573Z,2.70
2018-07-03T09:42:10.674Z,2.17
2018-07-03T09:44:38.760Z,2.62
2018-07-03T09:47:07.033Z,2.60
2018-07-03T09:49:35.260Z,2.52
2018-07-03T09:52:03.451Z,2.70
2018-07-03T09:54:31.468Z,2.50
2018-07-03T09:56:59.506Z,2.40
2018-07-03T09:59:27.576Z,2.40
2018-07-03T10:01:55.609Z,1.95
2018-07-03T10:04:23.679Z,2.60
2018-07-03T10:06:51.782Z,2.27
2018-07-03T10:09:19.833Z,2.30
2018-07-03T10:11:47.911Z,2.83
2018-07-03T10:14:16.033Z,2.70
2018-07-03T10:16:44.070Z,2.90
2018-07-03T10:19:12.150Z,2.60
2018-07-03T10:21:40.333Z,2.30
2018-07-03T10:24:08.458Z,2.30
2018-07-03T10:26:36.841Z,2.70
2018-07-03T10:29:04.966Z,2.35
2018-07-03T10:31:33.070Z,2.92
2018-07-03T10:34:01.127Z,2.77
2018-07-03T10:36:29.173Z,2.83
2018-07-03T10:38:57.339Z,2.60
2018-07-03T10:41:25.373Z,2.77
2018-07-03T10:43:53.505Z,2.92
2018-07-03T10:46:21.549Z,3.12
2018-07-03T10:48:50.581Z,3.20
2018-07-03T10:51:18.673Z,3.00
2018-07-03T10:53:46.715Z,2.80
2018-07-03T10:56:14.746Z,3.50
2018-07-03T10:58:44.831Z,3.50
2018-07-03T11:01:12.874Z,3.30
2018-07-03T11:03:40.945Z,2.70
2018-07-03T11:06:09.133Z,3.42
2018-07-03T11:08:37.195Z,3.30
2018-07-03T11:11:05.333Z,3.67
2018-07-03T11:13:33.408Z,3.30
2018-07-03T11:16:01.498Z,3.22
2018-07-03T11:18:29.925Z,3.15
2018-07-03T11:20:58.045Z,2.87
2018-07-03T11:23:26.226Z,3.45
2018-07-03T11:25:54.308Z,3.10
2018-07-03T11:28:22.613Z,3.20
2018-07-03T11:30:50.744Z,2.60
2018-07-03T11:33:21.197Z,3.35
2018-07-03T11:35:49.781Z,3.45
2018-07-03T11:38:18.050Z,3.83
2018-07-03T11:40:46.188Z,3.85
2018-07-03T11:43:14.418Z,3.90
2018-07-03T11:45:46.715Z,3.40
2018-07-03T11:48:20.078Z,3.58
2018-07-03T11:50:48.192Z,3.42
2018-07-03T11:53:17.071Z,3.20
2018-07-03T11:55:45.164Z,3.42
2018-07-03T11:58:13.657Z,3.20
2018-07-03T12:00:42.665Z,3.60
2018-07-03T12:03:10.744Z,3.45
2018-07-03T12:05:38.814Z,3.62
2018-07-03T12:08:08.965Z,3.35
2018-07-03T12:10:37.061Z,3.30
2018-07-03T12:13:06.056Z,3.85
2018-07-03T12:15:34.133Z,4.28
2018-07-03T12:18:02.220Z,4.10
2018-07-03T12:20:32.126Z,3.90
2018-07-03T12:23:00.303Z,3.33
2018-07-03T12:25:28.624Z,3.05
2018-07-03T12:27:57.793Z,3.10
2018-07-03T12:30:25.888Z,2.90
2018-07-03T12:32:53.959Z,3.35
2018-07-03T12:35:22.478Z,3.15
2018-07-03T12:37:50.612Z,3.20
2018-07-03T12:40:18.930Z,3.50
2018-07-03T12:42:47.136Z,3.75
2018-07-03T12:45:16.253Z,3.00
2018-07-03T12:47:44.342Z,3.77
2018-07-03T12:50:12.433Z,3.17
2018-07-03T12:52:40.526Z,3.10
2018-07-03T12:55:08.681Z,2.70
2018-07-03T12:57:36.842Z,2.67
2018-07-03T13:00:05.413Z,3.10
2018-07-03T13:02:33.944Z,2.75
2018-07-03T13:05:02.121Z,3.10
2018-07-03T13:07:30.219Z,2.80
2018-07-03T13:09:58.286Z,3.02
2018-07-03T13:12:26.334Z,2.05
2018-07-03T13:14:54.430Z,3.10
2018-07-03T13:17:22.480Z,3.00
2018-07-03T13:19:51.648Z,2.83
2018-07-03T13:22:19.718Z,2.90
2018-07-03T13:24:47.770Z,3.02
2018-07-03T13:27:15.841Z,2.90
2018-07-03T13:29:43.929Z,3.27
2018-07-03T13:32:11.970Z,2.52
2018-07-03T13:34:40.134Z,3.02
2018-07-03T13:37:08.367Z,2.90
2018-07-03T13:39:36.396Z,2.90
2018-07-03T13:42:04.488Z,2.90
2018-07-03T13:44:32.598Z,2.80
2018-07-03T13:47:01.806Z,3.02
2018-07-03T13:49:30.560Z,3.12
2018-07-03T13:51:58.705Z,2.98
2018-07-03T13:54:26.721Z,3.00
2018-07-03T13:56:54.760Z,2.52
2018-07-03T13:59:22.840Z,2.33
2018-07-03T14:01:54.868Z,2.08
2018-07-03T14:04:23.182Z,2.35
2018-07-03T14:06:53.802Z,2.47
2018-07-03T14:09:22.071Z,2.70
2018-07-03T14:11:50.587Z,2.60
2018-07-03T14:14:18.715Z,2.70
2018-07-03T14:16:53.473Z,2.60
2018-07-03T14:19:24.312Z,2.22
2018-07-03T14:21:57.148Z,2.15
2018-07-03T14:24:28.480Z,2.33
2018-07-03T14:26:56.616Z,2.30
2018-07-03T14:29:24.749Z,1.90
2018-07-03T14:31:53.212Z,1.92
2018-07-03T14:34:22.998Z,2.20
2018-07-03T14:36:52.338Z,2.10
2018-07-03T14:39:21.844Z,1.90
2018-07-03T14:41:49.983Z,2.15
2018-07-03T14:44:18.070Z,2.50
2018-07-03T14:46:46.146Z,2.60
2018-07-03T14:49:14.299Z,2.85
2018-07-03T14:51:42.612Z,2.22
2018-07-03T14:54:10.796Z,2.10
2018-07-03T14:56:41.241Z,2.22
2018-07-03T14:59:13.387Z,2.80
2018-07-03T15:01:43.423Z,2.22
2018-07-03T15:04:11.618Z,2.30
2018-07-03T15:06:39.660Z,2.55
2018-07-03T15:09:08.675Z,2.10
2018-07-03T15:11:36.689Z,1.90
2018-07-03T15:14:06.055Z,2.17
2018-07-03T15:16:35.691Z,2.20
2018-07-03T15:19:09.018Z,2.50
2018-07-03T15:21:38.173Z,2.42
2018-07-03T15:24:07.679Z,2.25
2018-07-03T15:26:37.103Z,2.05
2018-07-03T15:29:05.488Z,2.25
2018-07-03T15:31:39.274Z,2.10
2018-07-03T15:34:08.081Z,1.90
2018-07-03T15:36:36.398Z,1.80
2018-07-03T15:39:06.793Z,1.95
2018-07-03T15:41:35.104Z,2.30
2018-07-03T15:44:08.930Z,2.40
2018-07-03T15:46:36.997Z,2.22
2018-07-03T15:49:05.128Z,2.22
2018-07-03T15:51:35.826Z,2.20
2018-07-03T15:54:04.728Z,2.25
2018-07-03T15:56:32.763Z,1.82
2018-07-03T15:59:01.525Z,1.87
2018-07-03T16:01:29.590Z,2.00
2018-07-03T16:04:02.104Z,1.80
2018-07-03T16:06:35.820Z,2.00
2018-07-03T16:09:11.156Z,1.77
2018-07-03T16:11:39.903Z,1.77
2018-07-03T16:14:08.577Z,1.90
2018-07-03T16:16:36.753Z,2.00
2018-07-03T16:19:10.962Z,1.90
2018-07-03T16:21:39.462Z,1.80
2018-07-03T16:24:08.121Z,1.62
2018-07-03T16:26:36.292Z,2.20
2018-07-03T16:29:05.051Z,1.67
2018-07-03T16:31:33.102Z,1.65
2018-07-03T16:34:01.207Z,1.80
2018-07-03T16:36:29.718Z,1.87
2018-07-03T16:38:59.057Z,1.82
2018-07-03T16:41:27.366Z,1.87
2018-07-03T16:43:56.598Z,1.87
2018-07-03T16:46:24.696Z,1.80
2018-07-03T16:48:52.826Z,1.80
2018-07-03T16:51:20.912Z,1.60
2018-07-03T16:53:48.944Z,1.70
2018-07-03T16:56:17.037Z,1.47
2018-07-03T16:58:45.167Z,2.25
2018-07-03T17:01:13.358Z,1.65
2018-07-03T17:03:41.416Z,1.65
2018-07-03T17:06:09.484Z,1.85
2018-07-03T17:08:37.552Z,1.75
2018-07-03T17:11:06.114Z,1.70
2018-07-03T17:13:34.321Z,1.75
2018-07-03T17:16:02.427Z,1.87
2018-07-03T17:18:31.582Z,1.70
2018-07-03T17:20:59.914Z,1.60
2018-07-03T17:23:28.260Z,1.80
2018-07-03T17:25:57.048Z,1.90
2018-07-03T17:28:27.271Z,1.85
2018-07-03T17:30:55.314Z,1.42
2018-07-03T17:33:23.376Z,1.80
2018-07-03T17:35:51.755Z,1.80
2018-07-03T17:38:19.943Z,1.85
2018-07-03T17:40:53.536Z,1.70
2018-07-03T17:43:27.350Z,2.00
2018-07-03T17:46:01.429Z,1.98
2018-07-03T17:48:29.622Z,1.55
2018-07-03T17:50:57.767Z,1.60
2018-07-03T17:53:25.918Z,1.42
2018-07-03T17:55:54.343Z,1.77
2018-07-03T17:58:23.839Z,1.90
2018-07-03T18:00:52.326Z,1.70
2018-07-03T18:03:20.402Z,1.70
2018-07-03T18:05:48.531Z,1.60
2018-07-03T18:08:16.567Z,1.80
2018-07-03T18:10:44.633Z,2.00
2018-07-03T18:13:12.790Z,2.20
2018-07-03T18:15:44.023Z,1.98
2018-07-03T18:18:15.901Z,1.60
2018-07-03T18:20:44.105Z,2.10
2018-07-03T18:23:12.182Z,1.90
2018-07-03T18:25:40.319Z,1.80
2018-07-03T18:28:09.556Z,2.37
2018-07-03T18:30:38.920Z,2.00
2018-07-03T18:33:08.738Z,1.82
2018-07-03T18:35:37.722Z,1.90
2018-07-03T18:38:05.810Z,1.75
2018-07-03T18:40:33.929Z,2.30
2018-07-03T18:43:02.087Z,1.80
2018-07-03T18:45:30.212Z,1.90
2018-07-03T18:47:58.394Z,2.10
2018-07-03T18:50:27.094Z,1.87
2018-07-03T18:52:55.186Z,1.82
2018-07-03T18:55:23.322Z,1.70
2018-07-03T18:57:51.417Z,1.60
2018-07-03T19:00:20.041Z,1.90
2018-07-03T19:02:48.569Z,1.90
2018-07-03T19:05:16.622Z,1.80
2018-07-03T19:07:44.806Z,1.90
2018-07-03T19:10:12.961Z,1.57
2018-07-03T19:12:41.043Z,1.70
2018-07-03T19:15:10.813Z,1.82
2018-07-03T19:17:39.103Z,2.02
2018-07-03T19:20:07.198Z,2.10
2018-07-03T19:22:35.347Z,1.80
2018-07-03T19:25:03.497Z,1.85
2018-07-03T19:27:31.903Z,1.65
2018-07-03T19:30:00.089Z,1.70
2018-07-03T19:32:28.152Z,1.98
2018-07-03T19:34:56.247Z,1.90
2018-07-03T19:37:26.418Z,2.20
2018-07-03T19:39:57.656Z,1.80
2018-07-03T19:42:27.342Z,1.90
2018-07-03T19:44:58.547Z,1.92
2018-07-03T19:47:26.729Z,2.10
2018-07-03T19:49:58.954Z,2.00
2018-07-03T19:52:29.098Z,2.10
2018-07-03T19:54:57.327Z,2.10
2018-07-03T19:57:25.485Z,1.80
2018-07-03T19:59:53.620Z,1.97
2018-07-03T20:02:22.175Z,2.23
2018-07-03T20:04:50.813Z,2.07
2018-07-03T20:07:18.913Z,1.80
2018-07-03T20:09:47.010Z,1.93
2018-07-03T20:12:17.050Z,1.93
2018-07-03T20:14:45.280Z,2.00
2018-07-03T20:17:13.363Z,2.00
2018-07-03T20:19:41.468Z,2.20
2018-07-03T20:22:09.547Z,2.27
2018-07-03T20:24:37.686Z,2.30
2018-07-03T20:27:05.928Z,2.13
2018-07-03T20:29:34.085Z,2.33
2018-07-03T20:32:02.280Z,2.40
2018-07-03T20:34:30.351Z,2.40
2018-07-03T20:36:58.530Z,2.60
2018-07-03T20:39:27.758Z,2.77
2018-07-03T20:41:56.480Z,2.70
2018-07-03T20:44:24.577Z,2.80
2018-07-03T20:46:52.719Z,2.43
2018-07-03T20:49:21.026Z,2.63
2018-07-03T20:51:49.458Z,2.70
2018-07-03T20:54:19.705Z,2.90
2018-07-03T20:56:47.795Z,2.80
2018-07-03T20:59:15.939Z,2.47
2018-07-03T21:01:44.052Z,2.90
2018-07-03T21:04:12.293Z,2.93
2018-07-03T21:06:40.190Z,2.80
2018-07-03T21:09:08.853Z,3.10
2018-07-03T21:11:37.046Z,3.10
2018-07-03T21:14:05.351Z,2.80
2018-07-03T21:16:33.465Z,3.10
2018-07-03T21:19:01.570Z,3.07
2018-07-03T21:21:29.731Z,3.20
2018-07-03T21:23:57.851Z,2.73
2018-07-03T21:26:26.014Z,3.20
2018-07-03T21:28:54.400Z,3.10
2018-07-03T21:31:23.223Z,3.67
2018-07-03T21:34:03.310Z,3.30
2018-07-03T21:36:32.501Z,3.30
2018-07-03T21:39:03.424Z,3.10
2018-07-03T21:41:31.517Z,3.13
2018-07-03T21:43:59.572Z,3.40
2018-07-03T21:46:27.705Z,3.30
2018-07-03T21:48:55.777Z,3.30
2018-07-03T21:51:24.174Z,3.13
2018-07-03T21:53:52.229Z,3.40
2018-07-03T21:56:20.299Z,3.47
2018-07-03T21:58:48.331Z,3.20
2018-07-03T22:01:16.551Z,3.37
2018-07-03T22:03:44.577Z,3.13
2018-07-03T22:06:12.805Z,3.30
2018-07-03T22:08:40.912Z,3.30
2018-07-03T22:11:09.736Z,3.20
2018-07-03T22:13:37.847Z,3.20
2018-07-03T22:16:05.950Z,3.20
2018-07-03T22:18:34.025Z,3.67
2018-07-03T22:21:02.330Z,3.30
2018-07-03T22:23:30.419Z,3.10
2018-07-03T22:25:58.465Z,3.50
2018-07-03T22:28:26.557Z,3.63
2018-07-03T22:30:54.917Z,3.60
2018-07-03T22:33:22.962Z,3.50
2018-07-03T22:35:50.998Z,3.50
2018-07-03T22:38:19.037Z,3.70
2018-07-03T22:40:47.221Z,3.80
2018-07-03T22:43:15.278Z,3.50
2018-07-03T22:45:44.309Z,3.40
2018-07-03T22:48:12.594Z,3.73
2018-07-03T22:50:41.073Z,3.60
2018-07-03T22:53:09.400Z,3.80
2018-07-03T22:55:37.473Z,3.80
2018-07-03T22:58:06.020Z,3.83
2018-07-03T23:00:34.133Z,3.70
2018-07-03T23:03:02.287Z,3.70
2018-07-03T23:05:30.375Z,3.90
2018-07-03T23:07:58.506Z,3.93
2018-07-03T23:10:26.654Z,3.50
2018-07-03T23:12:54.714Z,3.60
2018-07-03T23:15:22.992Z,3.43
2018-07-03T23:17:51.036Z,3.83
2018-07-03T23:20:19.484Z,3.90
2018-07-03T23:22:47.605Z,3.70
2018-07-03T23:25:16.078Z,3.60
2018-07-03T23:27:44.346Z,3.50
2018-07-03T23:30:12.533Z,3.93
2018-07-03T23:32:40.661Z,3.67
2018-07-03T23:35:09.737Z,3.47
2018-07-03T23:37:37.831Z,3.57
2018-07-03T23:40:05.922Z,3.77
2018-07-03T23:42:33.970Z,3.40
2018-07-03T23:45:02.146Z,3.70
2018-07-03T23:47:35.810Z,3.90
2018-07-03T23:50:09.316Z,3.40
2018-07-03T23:52:42.811Z,3.50
2018-07-03T23:55:16.566Z,3.80
2018-07-03T23:57:50.223Z,4.20
